Time;durP1;ratioP1;P1;durP2;ratioP2;P2;SDS_P1;SDS_P2;PMS_P1;PMS_P2;Temp;Humidity;BMP_temperature;BMP_pressure;BME280_temperature;BME280_humidity;BME280_pressure;Samples;Min_cycle;Max_cycle;Signal;HPM_P1;HPM_P2
2022/11/07 00:01:59;;;;;;;;;9.50;5.00;;;;;;;;5012956;28;8798;-67
2022/11/07 00:04:27;;;;;;;;;5.00;4.00;;;;;;;;5012427;28;8818;-67
2022/11/07 00:06:52;;;;;;;;;7.75;5.00;;;;;;;;5012602;28;8811;-67
2022/11/07 00:09:17;;;;;;;;;8.25;4.50;;;;;;;;5012720;28;11527;-67
2022/11/07 00:11:43;;;;;;;;;5.00;5.00;;;;;;;;5012432;28;8905;-67
2022/11/07 00:14:10;;;;;;;;;11.50;7.25;;;;;;;;5011315;28;8865;-67
2022/11/07 00:16:35;;;;;;;;;4.00;4.00;;;;;;;;5012638;28;8895;-66
2022/11/07 00:19:01;;;;;;;;;7.75;5.00;;;;;;;;5012617;28;11536;-66
2022/11/07 00:21:26;;;;;;;;;8.00;5.00;;;;;;;;5010683;28;8814;-67
2022/11/07 00:23:51;;;;;;;;;7.00;5.00;;;;;;;;5012547;28;8802;-67
2022/11/07 00:26:17;;;;;;;;;4.50;4.50;;;;;;;;5011327;28;8818;-66
2022/11/07 00:28:42;;;;;;;;;10.00;5.50;;;;;;;;5012381;28;8837;-67
2022/11/07 00:31:08;;;;;;;;;5.00;5.00;;;;;;;;5012507;28;8925;-67
2022/11/07 00:33:34;;;;;;;;;4.00;4.00;;;;;;;;5012428;28;8805;-68
2022/11/07 00:35:59;;;;;;;;;4.75;4.75;;;;;;;;5012176;28;11554;-67
2022/11/07 00:38:24;;;;;;;;;6.75;5.00;;;;;;;;5012012;28;8891;-67
2022/11/07 00:40:54;;;;;;;;;7.00;7.00;;;;;;;;5011999;28;8810;-66
2022/11/07 00:43:19;;;;;;;;;5.00;4.00;;;;;;;;5012108;28;8794;-67
2022/11/07 00:45:48;;;;;;;;;5.50;5.00;;;;;;;;5011121;28;11686;-67
2022/11/07 00:48:13;;;;;;;;;7.75;6.50;;;;;;;;5012222;28;8842;-67
2022/11/07 00:50:39;;;;;;;;;5.00;4.00;;;;;;;;5012021;28;11642;-66
2022/11/07 00:53:04;;;;;;;;;4.00;4.00;;;;;;;;5012014;28;8798;-67
2022/11/07 00:55:30;;;;;;;;;5.00;5.00;;;;;;;;5011888;28;8825;-67
2022/11/07 00:57:56;;;;;;;;;5.00;5.00;;;;;;;;5011545;28;8795;-67
2022/11/07 01:00:21;;;;;;;;;6.25;5.00;;;;;;;;5011839;28;11561;-67
2022/11/07 01:05:09;;;;;;;;;8.00;8.00;;;;;;;;5010756;28;8826;-67
2022/11/07 01:05:31;;;;;;;;;11.25;9.25;;;;;;;;5011721;28;8838;-68
2022/11/07 01:07:57;;;;;;;;;8.00;6.00;;;;;;;;5010934;28;11531;-67
2022/11/07 01:10:24;;;;;;;;;4.75;4.00;;;;;;;;5011731;28;8778;-67
2022/11/07 01:12:50;;;;;;;;;4.50;4.50;;;;;;;;5010428;28;8885;-67
2022/11/07 01:15:15;;;;;;;;;6.00;5.00;;;;;;;;5009996;28;11551;-67
2022/11/07 01:17:41;;;;;;;;;5.00;5.00;;;;;;;;5011182;28;9509;-67
2022/11/07 01:20:06;;;;;;;;;6.00;5.00;;;;;;;;5011298;28;8855;-67
2022/11/07 01:22:31;;;;;;;;;5.00;5.00;;;;;;;;5011424;28;8798;-67
2022/11/07 01:24:57;;;;;;;;;8.75;8.00;;;;;;;;5011450;28;8837;-66
2022/11/07 01:27:22;;;;;;;;;7.50;5.00;;;;;;;;5011526;28;8868;-68
2022/11/07 01:29:47;;;;;;;;;10.00;7.50;;;;;;;;5011424;28;8817;-67
2022/11/07 01:32:12;;;;;;;;;14.33;11.00;;;;;;;;5011388;28;8880;-68
2022/11/07 01:34:38;;;;;;;;;13.33;11.67;;;;;;;;5014955;28;8825;-67
2022/11/07 01:37:03;;;;;;;;;12.00;11.00;;;;;;;;5011163;28;8887;-67
2022/11/07 01:39:28;;;;;;;;;10.67;10.67;;;;;;;;5010910;28;9493;-67
2022/11/07 01:41:54;;;;;;;;;19.33;16.33;;;;;;;;5011051;28;8809;-67
2022/11/07 01:44:19;;;;;;;;;23.33;14.67;;;;;;;;5010928;28;9620;-67
2022/11/07 01:46:45;;;;;;;;;14.67;12.67;;;;;;;;5011398;28;8795;-67
2022/11/07 01:49:10;;;;;;;;;14.67;13.00;;;;;;;;5010851;28;8936;-67
2022/11/07 01:51:40;;;;;;;;;11.33;10.33;;;;;;;;5010456;28;8774;-68
2022/11/07 01:54:06;;;;;;;;;9.25;7.00;;;;;;;;5010595;28;9777;-67
2022/11/07 01:56:32;;;;;;;;;27.00;22.00;;;;;;;;5010709;28;11591;-68
2022/11/07 01:58:58;;;;;;;;;65.00;53.33;;;;;;;;5010499;28;8814;-67
2022/11/07 02:01:23;;;;;;;;;41.00;40.33;;;;;;;;5010535;28;8829;-67
2022/11/07 02:03:50;;;;;;;;;40.00;35.33;;;;;;;;5010654;28;8837;-67
2022/11/07 02:06:25;;;;;;;;;40.00;37.33;;;;;;;;5009850;28;8814;-67
2022/11/07 02:08:50;;;;;;;;;27.00;21.00;;;;;;;;5010419;28;8779;-66
2022/11/07 02:11:16;;;;;;;;;18.67;18.33;;;;;;;;5010436;28;8828;-66
2022/11/07 02:13:42;;;;;;;;;17.00;14.67;;;;;;;;5009801;28;8896;-66
2022/11/07 02:16:07;;;;;;;;;13.00;13.00;;;;;;;;5010312;28;9666;-67
2022/11/07 02:18:34;;;;;;;;;14.67;11.67;;;;;;;;5010124;28;8806;-66
2022/11/07 02:21:02;;;;;;;;;10.67;9.33;;;;;;;;5009955;28;8862;-68
2022/11/07 02:23:38;;;;;;;;;8.00;8.00;;;;;;;;5010193;28;11549;-67
2022/11/07 02:26:03;;;;;;;;;5.50;4.25;;;;;;;;5010271;28;11493;-68
2022/11/07 02:28:31;;;;;;;;;5.00;4.67;;;;;;;;5010155;28;11500;-67
2022/11/07 02:30:56;;;;;;;;;4.75;4.00;;;;;;;;5010066;28;8791;-67
2022/11/07 02:33:22;;;;;;;;;5.67;2.00;;;;;;;;5009938;28;11521;-67
2022/11/07 02:35:49;;;;;;;;;8.67;4.00;;;;;;;;5010160;28;8810;-67
2022/11/07 02:38:22;;;;;;;;;10.67;7.00;;;;;;;;5003844;28;11533;-68
2022/11/07 02:41:08;;;;;;;;;5.00;4.00;;;;;;;;4998555;28;11553;-67
2022/11/07 02:43:35;;;;;;;;;4.00;4.00;;;;;;;;4997647;28;12355;-67
2022/11/07 02:46:03;;;;;;;;;7.67;5.00;;;;;;;;4999580;28;11525;-68
2022/11/07 02:48:29;;;;;;;;;4.33;4.33;;;;;;;;4998223;28;11529;-67
2022/11/07 02:50:55;;;;;;;;;4.00;4.00;;;;;;;;5014319;28;11496;-67
2022/11/07 02:53:20;;;;;;;;;4.00;4.00;;;;;;;;4997765;28;11492;-67
2022/11/07 02:55:45;;;;;;;;;5.00;2.00;;;;;;;;4998672;28;8791;-68
2022/11/07 02:58:10;;;;;;;;;5.00;4.00;;;;;;;;4999374;28;9248;-68
2022/11/07 03:00:36;;;;;;;;;4.67;4.67;;;;;;;;4997562;28;8793;-68
2022/11/07 03:03:01;;;;;;;;;1.00;1.00;;;;;;;;4999181;28;8845;-66
2022/11/07 03:05:26;;;;;;;;;1.33;0.00;;;;;;;;4999976;28;8904;-67
2022/11/07 03:07:51;;;;;;;;;7.33;4.33;;;;;;;;4999296;28;8802;-68
2022/11/07 03:10:17;;;;;;;;;5.67;4.00;;;;;;;;4997109;28;8809;-67
2022/11/07 03:12:42;;;;;;;;;8.00;4.00;;;;;;;;5004105;28;8944;-67
2022/11/07 03:15:08;;;;;;;;;5.67;4.33;;;;;;;;5009147;28;8853;-68
2022/11/07 03:17:34;;;;;;;;;5.00;5.00;;;;;;;;5009151;28;8818;-67
2022/11/07 03:19:59;;;;;;;;;7.67;5.00;;;;;;;;5006011;28;11545;-67
2022/11/07 03:22:24;;;;;;;;;4.00;4.00;;;;;;;;5009231;28;9398;-67
2022/11/07 03:24:50;;;;;;;;;4.00;4.00;;;;;;;;5009013;28;8838;-68
2022/11/07 03:27:15;;;;;;;;;4.67;4.00;;;;;;;;5008757;28;8857;-67
2022/11/07 03:29:41;;;;;;;;;2.00;2.00;;;;;;;;5009226;28;8845;-67
2022/11/07 03:32:06;;;;;;;;;3.33;3.33;;;;;;;;5012575;28;8817;-67
2022/11/07 03:34:32;;;;;;;;;2.67;2.67;;;;;;;;5013128;28;8829;-67
2022/11/07 03:36:57;;;;;;;;;4.00;4.00;;;;;;;;5012865;28;8822;-67
2022/11/07 03:39:22;;;;;;;;;3.00;2.00;;;;;;;;5012079;28;8851;-67
2022/11/07 03:41:47;;;;;;;;;7.33;5.00;;;;;;;;5013194;28;8868;-67
2022/11/07 03:44:12;;;;;;;;;8.00;4.00;;;;;;;;5013089;28;8878;-67
2022/11/07 03:46:38;;;;;;;;;2.67;2.67;;;;;;;;5028768;28;8822;-67
2022/11/07 03:49:03;;;;;;;;;5.00;2.00;;;;;;;;5013247;28;8806;-68
2022/11/07 03:51:28;;;;;;;;;6.33;4.00;;;;;;;;5016344;28;8828;-67
2022/11/07 03:53:54;;;;;;;;;5.00;3.33;;;;;;;;5014585;28;8913;-67
2022/11/07 03:56:19;;;;;;;;;2.00;2.00;;;;;;;;5011876;28;8807;-67
2022/11/07 03:58:44;;;;;;;;;5.00;4.00;;;;;;;;5013193;28;8787;-67
2022/11/07 04:01:11;;;;;;;;;4.00;4.00;;;;;;;;5012886;28;8798;-68
2022/11/07 04:03:36;;;;;;;;;4.00;4.00;;;;;;;;5013234;28;8799;-67
2022/11/07 04:06:01;;;;;;;;;3.33;3.33;;;;;;;;5012914;28;8834;-68
2022/11/07 04:08:27;;;;;;;;;5.00;4.00;;;;;;;;5012761;28;8941;-68
2022/11/07 04:10:52;;;;;;;;;2.67;2.67;;;;;;;;5012871;28;8905;-67
2022/11/07 04:17:17;;;;;;;;;5.00;4.00;;;;;;;;5013089;28;8837;-67
2022/11/07 04:18:53;;;;;;;;;2.00;2.00;;;;;;;;5012625;28;8822;-67
2022/11/07 04:21:18;;;;;;;;;2.00;2.00;;;;;;;;5012178;28;11528;-67
2022/11/07 04:23:44;;;;;;;;;5.00;4.00;;;;;;;;5012236;28;8837;-67
2022/11/07 04:28:53;;;;;;;;;1.33;1.33;;;;;;;;5012611;28;8802;-68
2022/11/07 04:31:18;;;;;;;;;2.00;2.00;;;;;;;;5012651;28;11500;-68
2022/11/07 04:33:44;;;;;;;;;2.00;1.00;;;;;;;;5012438;28;8925;-67
2022/11/07 04:36:09;;;;;;;;;2.00;2.00;;;;;;;;5012321;28;8806;-67
2022/11/07 04:38:34;;;;;;;;;4.67;4.00;;;;;;;;5012104;28;8802;-67
2022/11/07 04:41:00;;;;;;;;;5.00;3.33;;;;;;;;5010936;28;8842;-67
2022/11/07 04:43:26;;;;;;;;;2.00;2.00;;;;;;;;5011480;28;8829;-68
2022/11/07 04:45:51;;;;;;;;;6.33;4.00;;;;;;;;5011906;28;8823;-67
2022/11/07 04:48:16;;;;;;;;;7.00;2.00;;;;;;;;5012564;28;8795;-67
2022/11/07 04:50:42;;;;;;;;;2.00;2.00;;;;;;;;5011907;28;8786;-68
2022/11/07 04:53:10;;;;;;;;;3.33;3.33;;;;;;;;5011989;28;8841;-67
2022/11/07 04:55:36;;;;;;;;;5.00;5.00;;;;;;;;5010660;28;8802;-67
2022/11/07 04:58:01;;;;;;;;;1.67;1.67;;;;;;;;5011711;28;8794;-68
2022/11/07 05:00:26;;;;;;;;;4.00;2.00;;;;;;;;5012000;28;8799;-67
2022/11/07 05:02:51;;;;;;;;;5.00;4.00;;;;;;;;5011978;28;8827;-67
2022/11/07 05:05:17;;;;;;;;;2.67;2.67;;;;;;;;5011710;28;8904;-68
2022/11/07 05:07:42;;;;;;;;;2.00;2.00;;;;;;;;5011448;28;8825;-68
2022/11/07 05:10:13;;;;;;;;;3.33;2.00;;;;;;;;5009773;28;8909;-68
2022/11/07 05:12:38;;;;;;;;;4.00;4.00;;;;;;;;5005453;28;8886;-67
2022/11/07 05:15:04;;;;;;;;;7.00;4.00;;;;;;;;5011320;28;9595;-67
2022/11/07 05:17:29;;;;;;;;;2.67;2.67;;;;;;;;5011526;28;8809;-67
2022/11/07 05:19:55;;;;;;;;;6.33;3.33;;;;;;;;4969853;28;10430;-67
2022/11/07 05:25:04;;;;;;;;;4.00;4.00;;;;;;;;5009490;28;8842;-67
2022/11/07 05:27:30;;;;;;;;;5.00;5.00;;;;;;;;5009081;28;8849;-67
2022/11/07 05:29:55;;;;;;;;;7.33;4.33;;;;;;;;5009313;28;8814;-67
2022/11/07 05:32:20;;;;;;;;;2.00;1.00;;;;;;;;5009122;28;8876;-67
2022/11/07 05:34:45;;;;;;;;;4.00;4.00;;;;;;;;5009064;28;8836;-67
2022/11/07 05:37:11;;;;;;;;;4.00;4.00;;;;;;;;5009318;28;8806;-67
2022/11/07 05:39:37;;;;;;;;;8.00;6.33;;;;;;;;5010804;28;8790;-67
2022/11/07 05:42:02;;;;;;;;;4.33;4.33;;;;;;;;5010607;28;8810;-67
2022/11/07 05:44:28;;;;;;;;;4.00;4.00;;;;;;;;5011087;28;9593;-67
2022/11/07 05:46:55;;;;;;;;;6.33;4.00;;;;;;;;5011505;28;8978;-66
2022/11/07 05:49:20;;;;;;;;;1.00;1.00;;;;;;;;5010938;28;8799;-67
2022/11/07 05:51:45;;;;;;;;;5.00;4.00;;;;;;;;5010793;28;8841;-68
2022/11/07 05:54:10;;;;;;;;;4.00;4.00;;;;;;;;5009506;28;8791;-66
2022/11/07 05:56:37;;;;;;;;;2.00;2.00;;;;;;;;5010918;28;8794;-68
2022/11/07 05:59:05;;;;;;;;;3.33;2.00;;;;;;;;5010900;28;8790;-65
2022/11/07 06:01:31;;;;;;;;;5.00;5.00;;;;;;;;5010611;28;9632;-66
2022/11/07 06:03:56;;;;;;;;;6.33;4.00;;;;;;;;5010555;28;8909;-66
2022/11/07 06:06:21;;;;;;;;;7.00;4.00;;;;;;;;5010313;28;8908;-67
2022/11/07 06:08:46;;;;;;;;;2.00;2.00;;;;;;;;5010418;28;8778;-66
2022/11/07 06:11:12;;;;;;;;;5.00;5.00;;;;;;;;5014957;28;8798;-67
2022/11/07 06:13:37;;;;;;;;;8.00;8.00;;;;;;;;5009748;28;8838;-67
2022/11/07 06:16:03;;;;;;;;;5.33;4.00;;;;;;;;5009581;28;8929;-66
2022/11/07 06:18:28;;;;;;;;;2.67;2.67;;;;;;;;5008760;28;8802;-67
2022/11/07 06:20:53;;;;;;;;;12.00;10.67;;;;;;;;5010321;28;8787;-68
2022/11/07 06:23:19;;;;;;;;;2.00;2.00;;;;;;;;5010069;28;8937;-68
2022/11/07 06:25:44;;;;;;;;;7.33;4.33;;;;;;;;5010086;28;8833;-67
2022/11/07 06:28:13;;;;;;;;;4.00;2.00;;;;;;;;5005309;28;9604;-67
2022/11/07 06:30:38;;;;;;;;;2.67;2.67;;;;;;;;4990439;28;9623;-66
2022/11/07 06:33:05;;;;;;;;;12.67;10.33;;;;;;;;4989819;28;8848;-66
2022/11/07 06:35:30;;;;;;;;;8.67;7.00;;;;;;;;4990351;28;8882;-68
2022/11/07 06:37:55;;;;;;;;;8.00;8.00;;;;;;;;4990055;28;9524;-69
2022/11/07 06:40:21;;;;;;;;;7.33;5.00;;;;;;;;4990227;28;8895;-69
2022/11/07 06:42:46;;;;;;;;;11.67;5.00;;;;;;;;4995638;28;8847;-67
2022/11/07 06:45:11;;;;;;;;;5.00;5.00;;;;;;;;5009328;28;8830;-66
2022/11/07 06:47:37;;;;;;;;;10.00;8.00;;;;;;;;5009964;28;8836;-66
2022/11/07 06:50:02;;;;;;;;;8.67;7.67;;;;;;;;5009460;28;8821;-66
2022/11/07 06:52:28;;;;;;;;;8.00;7.33;;;;;;;;5006412;28;9596;-69
2022/11/07 06:54:53;;;;;;;;;7.00;7.00;;;;;;;;5005761;28;8850;-69
2022/11/07 06:57:18;;;;;;;;;6.33;5.67;;;;;;;;5008101;28;8868;-66
2022/11/07 06:59:44;;;;;;;;;6.67;4.67;;;;;;;;5007251;28;8881;-65
2022/11/07 07:02:12;;;;;;;;;8.00;6.33;;;;;;;;5006979;28;9622;-66
2022/11/07 07:04:37;;;;;;;;;15.33;14.00;;;;;;;;5006089;28;8846;-66
2022/11/07 07:07:03;;;;;;;;;8.33;5.67;;;;;;;;5006590;28;8794;-67
2022/11/07 07:09:28;;;;;;;;;10.00;8.00;;;;;;;;5007315;28;8802;-67
2022/11/07 07:11:53;;;;;;;;;8.00;7.00;;;;;;;;5007179;28;8826;-66
2022/11/07 07:14:18;;;;;;;;;8.50;7.75;;;;;;;;5007297;28;8874;-65
2022/11/07 07:16:46;;;;;;;;;10.50;8.25;;;;;;;;5007413;28;8838;-68
2022/11/07 07:19:11;;;;;;;;;11.25;9.50;;;;;;;;5007642;28;11542;-67
2022/11/07 07:21:37;;;;;;;;;9.50;8.00;;;;;;;;5007495;28;8826;-67
2022/11/07 07:24:02;;;;;;;;;10.50;9.00;;;;;;;;5007688;28;8834;-66
2022/11/07 07:26:27;;;;;;;;;9.00;8.00;;;;;;;;5007925;28;8819;-69
2022/11/07 07:28:53;;;;;;;;;10.00;10.00;;;;;;;;5007582;28;8810;-69
2022/11/07 07:31:21;;;;;;;;;9.50;9.50;;;;;;;;5007047;28;8822;-73
2022/11/07 07:33:47;;;;;;;;;11.00;11.00;;;;;;;;5007156;28;9536;-69
2022/11/07 07:36:13;;;;;;;;;12.25;8.25;;;;;;;;5007170;28;11465;-67
2022/11/07 07:38:38;;;;;;;;;12.25;10.50;;;;;;;;5007487;28;8826;-67
2022/11/07 07:41:04;;;;;;;;;9.00;8.75;;;;;;;;5006053;28;11548;-66
2022/11/07 07:43:29;;;;;;;;;10.00;10.00;;;;;;;;5006870;28;8799;-67
2022/11/07 07:46:02;;;;;;;;;9.00;9.00;;;;;;;;5008373;28;8834;-67
2022/11/07 07:48:27;;;;;;;;;13.00;10.50;;;;;;;;5009583;28;8916;-66
2022/11/07 07:50:53;;;;;;;;;9.00;9.00;;;;;;;;4998166;28;10730;-67
2022/11/07 07:53:18;;;;;;;;;14.00;13.25;;;;;;;;4997050;28;8830;-66
2022/11/07 07:55:43;;;;;;;;;13.00;12.50;;;;;;;;4999137;28;8940;-66
2022/11/07 07:58:09;;;;;;;;;13.00;13.00;;;;;;;;4997599;28;8790;-66
2022/11/07 08:00:35;;;;;;;;;12.00;12.00;;;;;;;;4997834;28;8917;-65
2022/11/07 08:03:01;;;;;;;;;12.00;12.00;;;;;;;;4996272;28;8813;-66
2022/11/07 08:05:26;;;;;;;;;11.25;9.50;;;;;;;;5007539;28;8846;-68
2022/11/07 08:07:51;;;;;;;;;11.00;8.00;;;;;;;;5006951;28;11579;-68
2022/11/07 08:10:17;;;;;;;;;10.50;10.50;;;;;;;;5007441;28;8835;-68
2022/11/07 08:12:43;;;;;;;;;15.75;13.25;;;;;;;;5008684;28;8872;-66
2022/11/07 08:15:09;;;;;;;;;13.00;12.00;;;;;;;;5008677;28;8953;-65
2022/11/07 08:17:35;;;;;;;;;16.25;11.50;;;;;;;;5009597;28;11570;-66
2022/11/07 08:20:00;;;;;;;;;11.00;11.00;;;;;;;;5012222;28;8925;-66
2022/11/07 08:22:25;;;;;;;;;15.50;13.00;;;;;;;;5011679;28;8826;-65
2022/11/07 08:24:50;;;;;;;;;12.25;11.00;;;;;;;;5011554;28;8830;-66
2022/11/07 08:27:16;;;;;;;;;16.00;15.75;;;;;;;;5012283;28;8783;-65
2022/11/07 08:29:41;;;;;;;;;15.00;13.00;;;;;;;;5013194;28;8834;-65
2022/11/07 08:32:06;;;;;;;;;12.00;12.00;;;;;;;;5013612;28;8814;-66
2022/11/07 08:34:31;;;;;;;;;12.00;12.00;;;;;;;;5011678;28;8834;-66
2022/11/07 08:36:57;;;;;;;;;11.25;11.00;;;;;;;;5011751;28;8779;-71
2022/11/07 08:39:22;;;;;;;;;11.75;11.75;;;;;;;;5011502;28;8793;-66
2022/11/07 08:41:47;;;;;;;;;16.75;12.00;;;;;;;;5011724;28;8950;-67
2022/11/07 08:44:12;;;;;;;;;19.25;12.00;;;;;;;;5013228;28;8824;-69
2022/11/07 08:46:38;;;;;;;;;13.25;11.50;;;;;;;;5012676;28;8802;-68
2022/11/07 08:49:03;;;;;;;;;14.00;12.00;;;;;;;;5011875;28;8833;-68
2022/11/07 08:51:28;;;;;;;;;13.50;13.00;;;;;;;;5010566;28;8949;-68
2022/11/07 08:53:53;;;;;;;;;11.25;10.75;;;;;;;;5011387;28;8929;-69
2022/11/07 08:56:19;;;;;;;;;8.50;8.50;;;;;;;;5011414;28;8794;-68
2022/11/07 08:58:44;;;;;;;;;14.00;12.75;;;;;;;;5011381;28;8806;-69
2022/11/07 09:01:09;;;;;;;;;35.33;30.33;;;;;;;;5026236;28;8834;-68
2022/11/07 09:03:36;;;;;;;;;20.00;15.50;;;;;;;;5011545;28;8818;-68
2022/11/07 09:06:01;;;;;;;;;27.00;25.00;;;;;;;;5011299;28;8802;-70
2022/11/07 09:08:27;;;;;;;;;16.75;14.75;;;;;;;;5010910;28;11575;-68
2022/11/07 09:10:52;;;;;;;;;17.00;15.25;;;;;;;;5010948;28;8794;-68
2022/11/07 09:13:19;;;;;;;;;22.50;20.25;;;;;;;;5010680;28;8818;-70
2022/11/07 09:15:44;;;;;;;;;19.75;19.50;;;;;;;;5011216;28;8818;-68
2022/11/07 09:18:10;;;;;;;;;18.25;15.00;;;;;;;;5011283;28;11549;-69
2022/11/07 09:20:35;;;;;;;;;16.25;15.00;;;;;;;;5011329;28;8825;-69
2022/11/07 09:23:01;;;;;;;;;29.00;23.75;;;;;;;;5011119;28;8853;-69
2022/11/07 09:25:26;;;;;;;;;24.25;20.75;;;;;;;;5010664;28;8830;-69
2022/11/07 09:27:52;;;;;;;;;22.75;20.25;;;;;;;;5025678;28;8860;-68
2022/11/07 09:30:18;;;;;;;;;24.50;20.25;;;;;;;;5009823;28;8875;-67
2022/11/07 09:32:43;;;;;;;;;23.75;19.50;;;;;;;;5009843;28;9555;-67
2022/11/07 09:35:08;;;;;;;;;14.75;11.75;;;;;;;;5010704;28;11551;-68
2022/11/07 09:37:36;;;;;;;;;16.50;16.00;;;;;;;;5010059;28;8892;-67
2022/11/07 09:40:02;;;;;;;;;14.00;12.25;;;;;;;;5010443;28;8794;-67
2022/11/07 09:42:28;;;;;;;;;15.50;14.25;;;;;;;;5008877;28;11509;-67
2022/11/07 09:44:55;;;;;;;;;13.50;12.75;;;;;;;;5010241;28;11580;-66
2022/11/07 09:47:22;;;;;;;;;15.50;12.00;;;;;;;;5010761;28;8868;-67
2022/11/07 09:49:53;;;;;;;;;16.75;15.00;;;;;;;;5010820;28;11536;-67
2022/11/07 09:52:22;;;;;;;;;17.25;15.00;;;;;;;;5010354;28;11521;-68
2022/11/07 09:54:50;;;;;;;;;16.50;12.00;;;;;;;;5010721;28;11682;-69
2022/11/07 09:57:17;;;;;;;;;16.00;15.00;;;;;;;;5010359;28;11586;-68
2022/11/07 10:00:02;;;;;;;;;17.50;14.00;;;;;;;;5010284;28;11536;-68
2022/11/07 10:02:32;;;;;;;;;22.50;21.50;;;;;;;;5006105;28;11562;-68
2022/11/07 10:05:00;;;;;;;;;35.50;29.00;;;;;;;;5010418;28;11565;-69
2022/11/07 10:07:35;;;;;;;;;19.25;18.00;;;;;;;;5009621;28;11808;-67
2022/11/07 10:10:05;;;;;;;;;15.75;15.75;;;;;;;;5022785;28;11702;-67
2022/11/07 10:13:06;;;;;;;;;16.75;14.75;;;;;;;;5009921;28;11562;-67
2022/11/07 10:15:54;;;;;;;;;12.25;11.00;;;;;;;;4961701;28;12282;-67
2022/11/07 10:18:20;;;;;;;;;13.00;13.00;;;;;;;;4957835;28;11566;-67
2022/11/07 10:21:02;;;;;;;;;20.25;16.25;;;;;;;;4960652;28;12253;-68
2022/11/07 10:23:36;;;;;;;;;17.00;15.00;;;;;;;;4968506;28;8819;-67
2022/11/07 10:26:09;;;;;;;;;13.75;13.00;;;;;;;;4968254;28;11544;-69
2022/11/07 10:28:42;;;;;;;;;17.25;16.00;;;;;;;;4952420;28;11717;-68
2022/11/07 10:31:10;;;;;;;;;19.75;14.75;;;;;;;;4959510;28;11513;-69
2022/11/07 10:33:38;;;;;;;;;17.00;16.00;;;;;;;;4958666;28;11522;-69
2022/11/07 10:36:23;;;;;;;;;21.25;19.50;;;;;;;;4957175;28;11544;-69
2022/11/07 10:38:49;;;;;;;;;19.75;19.00;;;;;;;;4960439;28;11608;-70
2022/11/07 10:41:16;;;;;;;;;19.75;16.50;;;;;;;;4946964;28;11534;-68
2022/11/07 10:43:43;;;;;;;;;18.00;16.50;;;;;;;;4942238;28;8989;-69
2022/11/07 10:46:24;;;;;;;;;18.75;16.00;;;;;;;;4959609;28;11823;-69
2022/11/07 10:48:54;;;;;;;;;18.00;18.00;;;;;;;;4957885;28;11563;-69
2022/11/07 10:51:19;;;;;;;;;17.50;15.50;;;;;;;;5008032;28;11537;-69
2022/11/07 10:53:45;;;;;;;;;21.50;19.75;;;;;;;;5009492;28;12265;-69
2022/11/07 10:56:11;;;;;;;;;18.50;15.50;;;;;;;;5009519;28;8830;-70
2022/11/07 10:58:43;;;;;;;;;19.50;18.00;;;;;;;;5009689;28;8814;-69
2022/11/07 11:01:09;;;;;;;;;21.00;18.50;;;;;;;;5004776;28;11566;-69
2022/11/07 11:03:40;;;;;;;;;21.50;18.75;;;;;;;;5006459;28;11166;-68
2022/11/07 11:06:27;;;;;;;;;61.50;49.75;;;;;;;;4989773;28;10537;-68
2022/11/07 11:08:53;;;;;;;;;57.25;47.75;;;;;;;;4996994;28;11795;-69
2022/11/07 11:11:29;;;;;;;;;33.75;30.75;;;;;;;;5008038;28;11717;-69
2022/11/07 11:14:21;;;;;;;;;35.50;31.00;;;;;;;;5006883;28;9057;-68
2022/11/07 11:16:48;;;;;;;;;22.00;20.75;;;;;;;;5005401;28;11217;-68
2022/11/07 11:19:34;;;;;;;;;26.00;19.75;;;;;;;;5009598;28;10862;-68
2022/11/07 11:21:59;;;;;;;;;24.00;21.75;;;;;;;;5009226;28;10876;-68
2022/11/07 11:24:30;;;;;;;;;21.25;19.50;;;;;;;;5008461;28;11518;-67
2022/11/07 11:27:02;;;;;;;;;18.25;18.00;;;;;;;;5009326;28;8826;-70
2022/11/07 11:29:27;;;;;;;;;18.25;16.50;;;;;;;;5006738;28;11512;-68
2022/11/07 11:31:54;;;;;;;;;15.00;14.00;;;;;;;;5008533;28;11614;-67
2022/11/07 11:34:38;;;;;;;;;15.25;15.25;;;;;;;;5009389;28;9560;-69
2022/11/07 11:37:16;;;;;;;;;14.25;14.25;;;;;;;;5008906;28;11471;-68
2022/11/07 11:39:44;;;;;;;;;21.25;17.50;;;;;;;;5005682;28;11497;-68
2022/11/07 11:42:28;;;;;;;;;12.00;10.00;;;;;;;;5009295;28;11488;-68
2022/11/07 11:44:55;;;;;;;;;13.50;11.00;;;;;;;;5009134;28;11559;-67
2022/11/07 11:47:27;;;;;;;;;12.25;10.00;;;;;;;;5009779;28;12228;-68
2022/11/07 11:49:52;;;;;;;;;19.00;15.00;;;;;;;;5007109;28;11502;-67
2022/11/07 11:52:21;;;;;;;;;13.00;12.50;;;;;;;;5010815;28;11498;-69
2022/11/07 11:54:48;;;;;;;;;17.75;17.75;;;;;;;;5012821;28;8917;-67
2022/11/07 11:57:20;;;;;;;;;20.25;20.25;;;;;;;;5012543;28;11550;-67
2022/11/07 11:59:54;;;;;;;;;53.00;40.50;;;;;;;;5012807;28;11537;-67
2022/11/07 12:02:32;;;;;;;;;14.50;13.75;;;;;;;;5010744;28;11676;-68
2022/11/07 12:05:06;;;;;;;;;67.67;52.33;;;;;;;;5010164;28;11477;-68
2022/11/07 12:07:44;;;;;;;;;50.00;43.75;;;;;;;;5012368;28;8806;-68
2022/11/07 12:10:32;;;;;;;;;8.75;8.25;;;;;;;;5010873;28;11566;-69
2022/11/07 12:13:05;;;;;;;;;17.50;11.50;;;;;;;;5012255;28;11564;-67
2022/11/07 12:15:43;;;;;;;;;10.50;9.25;;;;;;;;5012151;28;11491;-67
2022/11/07 12:18:20;;;;;;;;;10.00;7.50;;;;;;;;5026584;28;11484;-68
2022/11/07 12:20:55;;;;;;;;;10.25;9.00;;;;;;;;5010968;28;12212;-69
2022/11/07 12:23:23;;;;;;;;;6.00;6.00;;;;;;;;5010013;28;11618;-68
2022/11/07 12:25:48;;;;;;;;;14.25;14.00;;;;;;;;5012194;28;11474;-67
2022/11/07 12:28:28;;;;;;;;;7.00;5.00;;;;;;;;5011898;28;11467;-68
2022/11/07 12:30:53;;;;;;;;;6.75;6.75;;;;;;;;5012392;28;8798;-68
2022/11/07 12:33:37;;;;;;;;;6.75;4.50;;;;;;;;5012117;28;11621;-68
2022/11/07 12:36:21;;;;;;;;;5.00;4.25;;;;;;;;5010369;28;8837;-69
2022/11/07 15:37:58;;;;;;;;;4.00;4.00;;;;;;;;5100236;27;13396;-67
2022/11/07 15:40:24;;;;;;;;;3.00;3.00;;;;;;;;5087508;28;11522;-68
2022/11/07 15:42:49;;;;;;;;;9.00;8.00;;;;;;;;5084622;28;11414;-68
2022/11/07 15:45:16;;;;;;;;;5.50;3.50;;;;;;;;5084938;28;11468;-73
2022/11/07 15:47:42;;;;;;;;;7.75;6.75;;;;;;;;5087139;28;8952;-67
2022/11/07 15:50:15;;;;;;;;;9.00;8.00;;;;;;;;5084204;28;11560;-67
2022/11/07 15:52:40;;;;;;;;;7.25;6.25;;;;;;;;5083828;28;8834;-68
2022/11/07 15:55:10;;;;;;;;;8.00;7.25;;;;;;;;5085739;28;11415;-68
2022/11/07 15:57:35;;;;;;;;;8.75;7.00;;;;;;;;5086130;28;8818;-68
2022/11/07 16:00:00;;;;;;;;;7.00;7.00;;;;;;;;5086319;28;12280;-68
2022/11/07 16:02:26;;;;;;;;;7.25;6.50;;;;;;;;5086637;28;8813;-68
2022/11/07 16:04:51;;;;;;;;;7.50;6.25;;;;;;;;5085762;28;8889;-68
2022/11/07 16:07:17;;;;;;;;;7.00;7.00;;;;;;;;5085679;28;8814;-68
2022/11/07 16:09:44;;;;;;;;;21.00;18.75;;;;;;;;5085514;28;8786;-66
2022/11/07 16:12:14;;;;;;;;;41.50;34.75;;;;;;;;5083535;28;11524;-69
2022/11/07 16:14:40;;;;;;;;;6.00;4.00;;;;;;;;5084121;28;11548;-70
2022/11/07 16:17:05;;;;;;;;;2.50;2.50;;;;;;;;5085673;28;11579;-68
2022/11/07 16:19:31;;;;;;;;;7.00;7.00;;;;;;;;5084638;28;8932;-69
2022/11/07 16:21:56;;;;;;;;;6.50;6.50;;;;;;;;5085412;28;9520;-68
2022/11/07 16:24:21;;;;;;;;;7.00;7.00;;;;;;;;5085462;28;8819;-68
2022/11/07 16:26:48;;;;;;;;;20.75;19.25;;;;;;;;5085256;28;8810;-68
2022/11/07 16:29:14;;;;;;;;;21.00;19.00;;;;;;;;5085638;28;8825;-76
2022/11/07 16:31:39;;;;;;;;;26.50;22.00;;;;;;;;5086492;28;11484;-71
2022/11/07 16:34:04;;;;;;;;;48.25;40.00;;;;;;;;5085809;28;8807;-69
2022/11/07 16:36:30;;;;;;;;;30.00;28.00;;;;;;;;5082485;28;8843;-72
2022/11/07 16:38:56;;;;;;;;;32.00;30.00;;;;;;;;5085160;28;8806;-73
2022/11/07 16:41:21;;;;;;;;;34.50;26.25;;;;;;;;5083886;28;11641;-72
2022/11/07 16:43:47;;;;;;;;;45.25;38.50;;;;;;;;5085354;28;8799;-73
2022/11/07 16:46:13;;;;;;;;;61.00;48.33;;;;;;;;5117955;27;8949;-71
2022/11/07 16:48:39;;;;;;;;;56.00;46.25;;;;;;;;5075212;28;8807;-72
2022/11/07 16:51:04;;;;;;;;;56.75;44.00;;;;;;;;5071118;28;11543;-72
2022/11/07 16:53:29;;;;;;;;;82.00;65.00;;;;;;;;5071073;28;8917;-72
2022/11/07 16:55:59;;;;;;;;;31.25;28.00;;;;;;;;5071688;28;8818;-72
2022/11/07 16:58:27;;;;;;;;;20.50;20.00;;;;;;;;5072200;28;8872;-73
2022/11/07 17:00:53;;;;;;;;;33.25;29.25;;;;;;;;5071854;28;11512;-73
2022/11/07 17:03:19;;;;;;;;;23.25;19.50;;;;;;;;5070673;28;11532;-73
2022/11/07 17:05:44;;;;;;;;;34.75;29.25;;;;;;;;5072087;28;11552;-73
2022/11/07 17:08:15;;;;;;;;;31.75;27.75;;;;;;;;5071782;28;8779;-73
2022/11/07 17:10:40;;;;;;;;;29.25;27.75;;;;;;;;5070684;28;8806;-73
2022/11/07 17:13:05;;;;;;;;;30.50;29.00;;;;;;;;5070329;28;11522;-74
2022/11/07 17:15:30;;;;;;;;;33.75;26.75;;;;;;;;5069859;28;9602;-73
2022/11/07 17:17:56;;;;;;;;;30.75;25.75;;;;;;;;5071778;28;8802;-72
2022/11/07 17:20:21;;;;;;;;;29.00;23.75;;;;;;;;5071746;28;8814;-73
2022/11/07 17:22:46;;;;;;;;;23.75;21.00;;;;;;;;5070114;28;8803;-73
2022/11/07 17:25:12;;;;;;;;;23.25;21.25;;;;;;;;5068665;28;8791;-72
2022/11/07 17:27:39;;;;;;;;;25.00;24.00;;;;;;;;5070284;28;8818;-71
2022/11/07 17:30:05;;;;;;;;;24.00;21.50;;;;;;;;5071304;28;12275;-70
2022/11/07 17:32:30;;;;;;;;;25.00;21.75;;;;;;;;5082279;28;11571;-70
2022/11/07 17:34:56;;;;;;;;;24.00;19.00;;;;;;;;5092260;28;8838;-70
2022/11/07 17:37:21;;;;;;;;;29.50;24.75;;;;;;;;5090053;28;8843;-73
2022/11/07 17:39:47;;;;;;;;;24.00;20.25;;;;;;;;5088674;28;8788;-71
2022/11/07 17:42:13;;;;;;;;;21.00;19.50;;;;;;;;5088724;28;8804;-73
2022/11/07 17:44:38;;;;;;;;;27.25;25.25;;;;;;;;5083475;28;8929;-72
2022/11/07 17:47:04;;;;;;;;;24.25;23.00;;;;;;;;5069667;28;8844;-72